首页
METAR-TAF:

METAR-TAF

机场 :

Mankato, 明尼蘇達州, 美国

纬度: 44-13N, 经度: 093-55W, 海拔: 311米

当前天气观测

该预报发布于7分钟前的06:56 UTC
风速5节,风向东转东南
温度 4°C
湿度 87%
气压 1008 hPa
能見度: 16.1公里
天空无云

METAR: KMKT 200656Z AUTO 12005KT 10SM CLR 04/02 A2976 RMK AO2 SLP084 T00440017

时间: 02:03 (07:03 UTC)

预报

该预报发布于1小时和43分钟前的05:20 UTC
预报有效从20日的 06点(UTC)到 21日的 06点(UTC)
风速4节,风向多变
能見度: 10公里
天空无云
从 20日的 1200点(UTC)
风速9节,风向东南
能見度: 10公里
散云层高于25000英尺
从 20日的 1700点(UTC)
风速13节,风向南转南东,有时为21节阵风
能見度: 10公里
多云层高于20000英尺
从 21日的 0000点(UTC)
风速14节,风向东南,有时为23节阵风
能見度: 10公里
阴天层高于10000英尺
从 21日的 0400点(UTC)
风速15节,风向东南,有时为23节阵风
能見度: 9.7公里
阴天层高于5000英尺
小阵雨, 轻雾

TAF: KMKT 200520Z 2006/2106 VRB04KT P6SM SKC FM201200 14009KT P6SM SCT250 FM201700 16013G21KT P6SM BKN200 FM210000 13014G23KT P6SM OVC100 FM210400 13015G23KT 6SM -SHRA BR OVC050

超过4000个机场的气象观测和天气预报(METAR&TAF报告)。

可查询的气象台以黄色和红色小点在地图上表示。

将鼠标移到小点上方,可查看气象台名称。

然后点击查看天气观测和预报。

如需切换地图:点击带黑十字的绿色按钮放大地图;点击带横线的绿色按钮缩小地图;或者点击绿色箭头查看邻近地区的地图。


METAR-TAF: